Schroeder, Minnesota
Current Conditions -  °F | °C
As of 4:33 PM on Monday 26 Jan 2015 (Local Time) from KCKC Reporting Station
Light Snow Light Snow  
Wind Chill: 13°   Ceiling: NA
Heat Index: 19°   Visibility: 2.5mi
Dew Point: 16°   Wind: 5mph
Humidity: 86%   Direction: 20°NNE
Pressure: 29.73"   Gusts: NA
Location:  47.54°N, 90.89°W
Report Text: KCKC 262233Z AUTO 02004KT 2 1/2SM -SN M07/M09 A2973 RMK AO2 VIS 1 3/4V3
Loading
Personal Weather Stations






























Interactive Weather Map New forecast layout! Learn more

10-Day Weather Forecast

Advertisements
Track Severe Weather on mobile